Nearby METAR Reports

 

KSEE - San Diego/Santee, California, USA
Distance from station: E 4mi, 6km
Updated: 11/20/2018 2:55am

 
Temperature: 48°F , 9°C
Dew Point: 43°F , 6°C
Humidity: 82%
Barometer: 29.99 inHg , 1015.6 hPa
Visibility: 10 miles , 16 km
2018/11/20 10:55 KSEE 201055Z AUTO 10SM 09/06 A2999 RMK AO2
KMYF - San Diego/Mntgmy, California, USA
Distance from station: W 6mi, 10km
Updated: 11/20/2018 2:53am
Clear
Clear
 Wind from calm
Wind: Calm
Temperature: 55°F , 13°C
Dew Point: 46°F , 8°C
Humidity: 72%
Barometer: 30.00 inHg , 1015.9 hPa
Clouds: Clear
Visibility: 10 miles , 16 km
2018/11/20 10:53 KMYF 201053Z AUTO 00000KT 10SM CLR 13/08 A3000 RMK AO2 SLP155 T01280078
 
KNKX - Miramar Nas/San, California, USA
Distance from station: WNW 7mi, 11km
Updated: 11/20/2018 2:55am
Clear
Clear
 Wind from E
Wind: E 5 mph , 7 km/h
Temperature: 54°F , 12°C
Dew Point: 43°F , 6°C
Humidity: 67%
Barometer: 29.99 inHg , 1015.6 hPa
Clouds: Clear
Visibility: 10 miles , 16 km
2018/11/20 10:55 KNKX 201055Z 09004KT 10SM CLR 12/06 A2999 RMK AO2 SLP150 T01170061 $
KSAN - San Diego, California, USA
Distance from station: WSW 11mi, 17km
Updated: 11/20/2018 2:51am
Mist, Mostly cloudy
Mist, Mostly cloudy
 Wind from NE
Wind: NE 3 mph , 6 km/h
Temperature: 59°F , 15°C
Dew Point: 50°F , 10°C
Humidity: 72%
Barometer: 30.00 inHg , 1015.9 hPa
Summary: Mist
Clouds: Mostly cloudy
Visibility: 6 miles , 10 km
Cloud details: Few Clouds 1500 ft
Mostly cloudy 22000 ft
2018/11/20 10:51 KSAN 201051Z 05003KT 6SM BR FEW015 BKN220 15/10 A3000 RMK AO2 SLP159 T01500100
 
KNZY - North Island Nas, California, USA
Distance from station: SW 13mi, 22km
Updated: 11/20/2018 2:52am
Mostly cloudy
Mostly cloudy
 Wind from E
Wind: E 5 mph , 7 km/h
Temperature: 57°F , 14°C
Dew Point: 48°F , 9°C
Humidity: 72%
Barometer: 29.98 inHg , 1015.2 hPa
Clouds: Mostly cloudy
Visibility: 7 miles , 11 km
Cloud details: Few Clouds 1400 ft
Mostly cloudy 22000 ft
2018/11/20 10:52 KNZY 201052Z 08004KT 7SM FEW014 BKN220 14/09 A2998 RMK AO2 SLP153 T01390089
KRNM - Ramona, California, USA
Distance from station: NNE 16mi, 26km
Updated: 11/20/2018 2:53am
Clear
Clear
 Wind from calm
Wind: Calm
Temperature: 39°F , 4°C
Dew Point: 32°F , 0°C
Humidity: 75%
Barometer: 30.01 inHg , 1016.3 hPa
Clouds: Clear
Visibility: 9 miles , 14 km
2018/11/20 10:53 KRNM 201053Z AUTO 00000KT 9SM CLR 04/00 A3001 RMK AO2 SLP156 T00440000
 
KSDM - San Diego/Brown, California, USA
Distance from station: S 16mi, 26km
Updated: 11/20/2018 2:53am
Clear
Clear
 Wind from SE
Wind: SE 5 mph , 7 km/h
Temperature: 54°F , 12°C
Dew Point: 45°F , 7°C
Humidity: 72%
Barometer: 29.99 inHg , 1015.6 hPa
Clouds: Clear
Visibility: 7 miles , 11 km
2018/11/20 10:53 KSDM 201053Z AUTO 13004KT 7SM CLR 12/07 A2999 RMK AO2 SLP154 T01220072
KNRS - Imperial Beach, California, USA
Distance from station: SSW 18mi, 29km
Updated: 11/20/2018 2:56am
Clear
Clear
 Wind from ESE
Wind: ESE 6 mph , 9 km/h
Temperature: 54°F , 12°C
Dew Point: 46°F , 8°C
Humidity: 77%
Barometer: 30.00 inHg , 1015.9 hPa
Clouds: Clear
Visibility: 4 miles , 6 km
2018/11/20 10:56 KNRS 201056Z AUTO 11005KT 4SM CLR 12/08 A3000 RMK AO2 SLP156 T01170083
 
MMTJ - Tijuana Intl Arp, Mexico
Distance from station: S 20mi, 32km
Updated: 11/20/2018 2:41am
Mostly cloudy
Mostly cloudy
 Wind from calm
Wind: Calm
Temperature: 54°F , 12°C
Dew Point: 45°F , 7°C
Humidity: 72%
Barometer: 30.02 inHg , 1016.6 hPa
Clouds: Mostly cloudy
Visibility: 6 miles , 10 km
Cloud details: Partly cloudy 10000 ft
Mostly cloudy 20000 ft
2018/11/20 10:41 MMTJ 201041Z 00000KT 6SM SCT100 BKN200 12/07 A3002 RMK 8/038 HZY
KCRQ - Carlsbad, California, USA
Distance from station: NW 26mi, 43km
Updated: 11/20/2018 2:53am
Clear
Clear
 Wind from calm
Wind: Calm
Temperature: 54°F , 12°C
Dew Point: 43°F , 6°C
Humidity: 67%
Barometer: 29.98 inHg , 1015.2 hPa
Clouds: Clear
Visibility: 10 miles , 16 km
2018/11/20 10:53 KCRQ 201053Z AUTO 00000KT 10SM CLR 12/06 A2998 RMK AO2 SLP151 T01220056
 
KOKB - Oceanside, California, USA
Distance from station: NW 33mi, 54km
Updated: 11/20/2018 2:52am
Clear
Clear
 Wind from calm
Wind: Calm
Temperature: 45°F , 7°C
Dew Point: 39°F , 4°C
Humidity: 81%
Barometer: 29.99 inHg , 1015.6 hPa
Clouds: Clear
Visibility: 10 miles , 16 km
2018/11/20 10:52 KOKB 201052Z AUTO 00000KT 10SM CLR 07/04 A2999 RMK AO2 SLP154 T00720044
KCZZ - Campo, California, USA
Distance from station: ESE 35mi, 56km
Updated: 11/20/2018 2:52am

 Wind from calm
Wind: Calm
Temperature: 39°F , 4°C
Dew Point: 16°F , -9°C
Humidity: 39%
Barometer: 29.99 inHg , 1015.6 hPa
2018/11/20 10:52 KCZZ 201052Z AUTO 00000KT 04/M09 A2999 RMK AO1 SLP139 T00441089
 
KNFG - Camp Pendleton, California, USA
Distance from station: NNW 37mi, 59km
Updated: 11/20/2018 12:55am
NOT Current
Clear
Clear
 Wind from calm
Wind: Calm
Temperature: 43°F , 6°C
Dew Point: 39°F , 4°C
Humidity: 87%
Barometer: 30.01 inHg , 1016.3 hPa
Clouds: Clear
Visibility: 10 miles , 16 km
2018/11/20 08:55 KNFG 200855Z AUTO 00000KT 10SM CLR 06/04 A3001 RMK AO2 SLP160 T00560044 58009
KRIV - Riverside/March, California, USA
Distance from station: N 74mi, 119km
Updated: 11/20/2018 2:58am
Mostly cloudy
Mostly cloudy
 Wind from calm
Wind: Calm
Temperature: 46°F , 8°C
Dew Point: 23°F , -5°C
Humidity: 40%
Barometer: 30.00 inHg , 1015.9 hPa
Clouds: Mostly cloudy
Visibility: 10 miles , 16 km
Cloud details: Partly cloudy 16000 ft
Mostly cloudy 20000 ft
2018/11/20 10:58 KRIV 201058Z 00000KT 10SM SCT160 BKN200 08/M05 A3000 RMK AO2A SLP154 T00841048 PNO $
 
KTRM - Thermal/Palm Spg, California, USA
Distance from station: NE 75mi, 121km
Updated: 11/20/2018 2:52am
Clear
Clear
 Wind from N
Wind: N 3 mph , 6 km/h
Temperature: 48°F , 9°C
Dew Point: 36°F , 2°C
Humidity: 62%
Barometer: 29.97 inHg , 1014.9 hPa
Clouds: Clear
Visibility: 10 miles , 16 km
2018/11/20 10:52 KTRM 201052Z AUTO 01003KT 10SM CLR 09/02 A2997 RMK AO2 SLP150 T00890017
KPSP - Palm Springs, California, USA
Distance from station: NNE 76mi, 122km
Updated: 11/20/2018 2:53am
Clear
Clear
 Wind from NNW
Wind: NNW 7 mph , 11 km/h
Temperature: 55°F , 13°C
Dew Point: 27°F , -3°C
Humidity: 33%
Barometer: 30.01 inHg , 1016.3 hPa
Clouds: Clear
Visibility: 10 miles , 16 km
2018/11/20 10:53 KPSP 201053Z AUTO 33006KT 10SM CLR 13/M03 A3001 RMK AO2 SLP161 T01281033
 
KSNA - Costa Mesa, California, USA
Distance from station: NW 76mi, 123km
Updated: 11/20/2018 2:53am
Clear
Clear
 Wind from calm
Wind: Calm
Temperature: 54°F , 12°C
Dew Point: 46°F , 8°C
Humidity: 77%
Barometer: 29.99 inHg , 1015.6 hPa
Clouds: Clear
Visibility: 9 miles , 14 km
2018/11/20 10:53 KSNA 201053Z AUTO 00000KT 9SM CLR 12/08 A2999 RMK AO2 SLP154 T01220083 $
KNJK - El Centro Naf, California, USA
Distance from station: E 79mi, 127km
Updated: 11/20/2018 2:56am
Clear
Clear
 Wind from W
Wind: W 7 mph , 11 km/h
Temperature: 52°F , 11°C
Dew Point: 23°F , -5°C
Humidity: 32%
Barometer: 29.99 inHg , 1015.6 hPa
Clouds: Clear
Visibility: 10 miles , 16 km
2018/11/20 10:56 KNJK 201056Z AUTO 28006KT 10SM CLR 11/M05 A2999 RMK AO2 SLP169 T01111050
 
KAJO - Corona Muni, California, USA
Distance from station: NNW 82mi, 132km
Updated: 11/20/2018 2:56am
Clear
Clear
 Wind from calm
Wind: Calm
Temperature: 43°F , 6°C
Dew Point: 39°F , 4°C
Humidity: 87%
Barometer: 30.01 inHg , 1016.3 hPa
Clouds: Clear
Visibility: 7 miles , 11 km
2018/11/20 10:56 KAJO 201056Z AUTO 00000KT 7SM CLR 06/04 A3001 RMK AO2 SLP173 T00610039 $